Time;durP1;ratioP1;P1;durP2;ratioP2;P2;SDS_P1;SDS_P2;PMS_P1;PMS_P2;Temp;Humidity;BMP_temperature;BMP_pressure;BME280_temperature;BME280_humidity;BME280_pressure;Samples;Min_cycle;Max_cycle;Signal;HPM_P1;HPM_P2
2022/09/24 00:01:37;;;;;;;0.70;0.70;;;8.40;68.40;;;8.26;54.09;94885.28;5056920;28;20337;-81
2022/09/24 00:04:10;;;;;;;0.60;0.60;;;8.50;68.60;;;8.26;53.82;94884.47;5058823;28;20297;-81
2022/09/24 00:06:44;;;;;;;0.70;0.70;;;8.50;68.60;;;8.26;53.96;94882.66;5061675;28;20283;-80
2022/09/24 00:09:14;;;;;;;0.75;0.75;;;8.40;69.00;;;8.24;54.00;94876.00;5065660;28;20199;-81
2022/09/24 00:11:44;;;;;;;0.80;0.80;;;8.40;68.50;;;8.23;54.27;94875.19;5041093;28;20308;-80
2022/09/24 00:14:11;;;;;;;0.70;0.70;;;8.40;68.60;;;8.24;54.43;94873.38;5074308;28;20558;-79
2022/09/24 00:16:40;;;;;;;0.70;0.70;;;8.40;69.50;;;8.25;54.31;94877.63;5077761;28;20218;-80
2022/09/24 00:19:07;;;;;;;0.70;0.70;;;8.40;68.80;;;8.27;54.35;94868.59;5055780;28;20573;-79
2022/09/24 00:21:36;;;;;;;0.70;0.70;;;8.40;68.80;;;8.29;54.21;94874.47;5043774;28;20234;-80
2022/09/24 00:24:09;;;;;;;0.70;0.70;;;8.40;68.90;;;8.29;53.98;94865.84;5059783;28;20206;-80
2022/09/24 00:26:48;;;;;;;0.80;0.80;;;8.40;68.90;;;8.28;53.91;94866.81;5058992;28;20625;-79
2022/09/24 00:29:23;;;;;;;0.70;0.70;;;8.40;68.70;;;8.26;53.80;94866.97;5059596;28;20214;-79
2022/09/24 00:31:52;;;;;;;0.63;0.63;;;8.50;69.00;;;8.27;53.81;94860.78;5040648;28;20309;-80
2022/09/24 00:34:20;;;;;;;0.70;0.70;;;8.40;68.80;;;8.28;54.22;94865.00;5044963;28;20648;-80
2022/09/24 00:36:47;;;;;;;0.80;0.80;;;8.50;68.90;;;8.28;54.02;94865.00;5058425;28;20226;-79
2022/09/24 00:39:15;;;;;;;0.70;0.70;;;8.40;68.80;;;8.29;54.07;94863.22;5058674;28;20383;-79
2022/09/24 00:41:47;;;;;;;0.90;0.90;;;8.50;69.00;;;8.30;54.43;94863.03;5056346;28;20227;-81
2022/09/24 00:44:43;;;;;;;0.70;0.70;;;8.40;69.20;;;8.29;54.67;94850.97;5041482;28;20229;-81
2022/09/24 00:47:30;;;;;;;0.80;0.80;;;8.40;70.10;;;8.33;54.38;94846.19;5093010;28;20222;-81
2022/09/24 00:50:06;;;;;;;0.70;0.70;;;8.50;70.30;;;8.38;54.85;94848.28;5076133;28;20265;-80
2022/09/24 00:52:40;;;;;;;0.70;0.70;;;8.50;69.70;;;8.37;54.49;94831.75;5077221;28;20563;-81
2022/09/24 00:55:08;;;;;;;0.60;0.60;;;8.50;69.70;;;8.44;54.59;94829.25;5057580;28;20195;-80
2022/09/24 00:57:37;;;;;;;0.60;0.60;;;8.50;69.60;;;8.48;54.22;94833.97;5060460;28;20242;-81
2022/09/24 01:00:06;;;;;;;0.70;0.70;;;8.50;69.40;;;8.48;54.22;94828.75;5074581;28;20778;-79
2022/09/24 01:02:36;;;;;;;0.68;0.68;;;8.60;69.60;;;8.53;54.75;94825.56;5043727;28;20222;-80
2022/09/24 01:05:04;;;;;;;0.70;0.70;;;8.60;69.60;;;8.56;54.67;94840.91;5040958;28;20947;-80
2022/09/24 01:07:31;;;;;;;0.80;0.80;;;8.60;69.50;;;8.57;54.77;94834.69;5047522;28;20280;-80
2022/09/24 01:09:58;;;;;;;0.70;0.70;;;8.70;69.60;;;8.55;54.52;94828.81;5040083;28;20602;-80
2022/09/24 01:12:41;;;;;;;0.60;0.60;;;8.70;69.60;;;8.62;54.67;94834.94;5039871;28;20227;-80
2022/09/24 01:15:25;;;;;;;0.60;0.60;;;8.70;70.20;;;8.62;54.64;94829.72;5045710;28;20541;-82
2022/09/24 01:18:27;;;;;;;0.60;0.60;;;8.70;70.30;;;8.63;54.63;94839.19;5023793;28;20676;-80
2022/09/24 01:21:27;;;;;;;0.60;0.60;;;8.70;70.30;;;8.65;54.52;94825.94;5039609;28;20742;-81
2022/09/24 01:24:27;;;;;;;0.60;0.60;;;8.80;70.20;;;8.66;54.63;94824.94;5072261;28;20210;-79
2022/09/24 01:27:44;;;;;;;0.60;0.60;;;8.80;70.40;;;8.63;54.46;94820.09;5062693;28;20233;-80
2022/09/24 01:30:14;;;;;;;0.70;0.70;;;8.80;70.00;;;8.65;54.59;94829.38;5075723;28;20674;-79
2022/09/24 01:32:50;;;;;;;0.60;0.60;;;8.80;69.50;;;8.67;54.64;94823.13;5042855;28;20294;-80
2022/09/24 01:35:35;;;;;;;0.60;0.60;;;8.80;69.80;;;8.67;54.63;94815.28;5029274;28;20195;-80
2022/09/24 01:38:20;;;;;;;0.70;0.70;;;8.80;70.30;;;8.67;54.63;94812.66;5054518;28;20256;-80
2022/09/24 01:40:50;;;;;;;0.60;0.60;;;8.80;70.30;;;8.65;54.82;94800.63;5059071;28;20230;-80
2022/09/24 01:43:23;;;;;;;0.80;0.80;;;8.80;69.60;;;8.65;54.87;94794.56;5051577;28;20219;-80
2022/09/24 01:45:51;;;;;;;0.70;0.70;;;8.80;69.70;;;8.65;54.65;94803.22;5022882;28;20195;-81
2022/09/24 01:48:20;;;;;;;0.80;0.80;;;8.80;69.50;;;8.65;54.75;94794.56;5039019;28;20222;-80
2022/09/24 01:51:01;;;;;;;0.60;0.60;;;8.80;69.60;;;8.61;54.69;94791.50;5054880;28;20199;-80
2022/09/24 01:54:04;;;;;;;0.60;0.60;;;8.80;70.40;;;8.62;54.78;94790.50;5033554;28;20240;-81
2022/09/24 01:56:43;;;;;;;0.60;0.60;;;8.80;70.30;;;8.65;54.87;94787.53;5057819;28;20708;-79
2022/09/24 01:59:33;;;;;;;0.60;0.60;;;8.90;70.50;;;8.68;55.03;94781.13;5055020;28;20238;-80
2022/09/24 02:02:44;;;;;;;0.60;0.60;;;8.80;70.40;;;8.71;54.93;94772.09;5037889;28;20785;-80
2022/09/24 02:05:52;;;;;;;0.70;0.70;;;8.80;71.50;;;8.70;54.73;94771.28;5038626;28;20209;-81
2022/09/24 02:08:24;;;;;;;0.60;0.60;;;8.80;70.70;;;8.74;54.66;94769.09;5077708;28;20306;-80
2022/09/24 02:11:06;;;;;;;0.70;0.70;;;8.80;70.00;;;8.75;54.45;94773.34;5065784;28;20226;-80
2022/09/24 02:14:04;;;;;;;0.75;0.75;;;8.80;70.20;;;8.78;54.97;94776.41;5041721;28;20202;-79
2022/09/24 02:16:40;;;;;;;0.60;0.60;;;8.90;70.20;;;8.77;54.91;94771.38;5054627;28;20218;-79
2022/09/24 02:19:13;;;;;;;0.60;0.60;;;9.00;70.50;;;8.80;54.82;94784.06;5021521;28;20206;-81
2022/09/24 02:21:43;;;;;;;0.60;0.60;;;9.00;70.30;;;8.79;54.66;94778.03;5055258;28;20227;-81
2022/09/24 02:24:19;;;;;;;0.60;0.60;;;9.00;71.00;;;8.80;54.83;94779.66;5034280;28;20642;-81
2022/09/24 02:26:47;;;;;;;0.68;0.68;;;8.90;70.50;;;8.79;54.80;94774.63;5065771;28;20574;-80
2022/09/24 02:29:14;;;;;;;0.80;0.80;;;8.90;70.30;;;8.80;54.77;94777.03;5022110;28;20221;-80
2022/09/24 02:31:46;;;;;;;0.60;0.60;;;8.90;70.00;;;8.81;54.97;94781.28;5038145;28;20218;-79
2022/09/24 02:34:24;;;;;;;0.60;0.60;;;8.90;70.20;;;8.81;54.80;94775.22;5069745;28;20207;-80
2022/09/24 02:37:13;;;;;;;0.63;0.63;;;8.90;70.30;;;8.77;54.90;94766.13;5073885;28;20287;-80
2022/09/24 02:39:41;;;;;;;0.70;0.70;;;9.00;71.00;;;8.74;55.04;94769.94;5058033;28;20214;-80
2022/09/24 02:42:12;;;;;;;0.60;0.60;;;8.90;69.80;;;8.74;54.74;94763.88;5056302;28;20226;-79
2022/09/24 02:44:40;;;;;;;0.60;0.60;;;9.00;70.10;;;8.73;54.80;94760.47;5057297;28;20206;-81
2022/09/24 02:47:07;;;;;;;0.60;0.60;;;8.90;69.90;;;8.71;54.88;94767.66;5074663;28;20256;-80
2022/09/24 02:49:34;;;;;;;0.60;0.60;;;8.90;69.90;;;8.69;55.02;94763.63;5057387;28;20338;-79
2022/09/24 02:52:03;;;;;;;0.60;0.60;;;8.90;69.90;;;8.67;54.80;94760.38;5048181;28;20231;-80
2022/09/24 02:54:30;;;;;;;0.70;0.70;;;8.80;70.70;;;8.63;54.75;94762.56;5043894;28;20200;-80
2022/09/24 02:56:57;;;;;;;0.60;0.60;;;8.80;69.90;;;8.54;55.22;94746.16;5021938;28;20232;-80
2022/09/24 02:59:24;;;;;;;0.60;0.60;;;8.80;69.80;;;8.51;55.16;94741.31;5056631;28;20232;-81
2022/09/24 03:01:52;;;;;;;0.60;0.60;;;8.70;69.80;;;8.52;55.10;94742.09;5046882;28;20226;-80
2022/09/24 03:04:19;;;;;;;0.70;0.70;;;8.70;70.80;;;8.48;55.10;94744.28;5032048;28;20576;-80
2022/09/24 03:06:46;;;;;;;0.60;0.60;;;8.70;70.00;;;8.45;55.43;94739.41;5046252;28;20219;-80
2022/09/24 03:09:14;;;;;;;0.65;0.65;;;8.70;70.10;;;8.47;55.43;94745.25;5047486;28;20202;-81
2022/09/24 03:11:41;;;;;;;0.70;0.70;;;8.60;70.00;;;8.44;55.53;94740.38;5063208;28;20223;-80
2022/09/24 03:14:08;;;;;;;0.60;0.60;;;8.60;70.10;;;8.45;55.43;94757.69;5052009;28;20197;-80
2022/09/24 03:16:35;;;;;;;0.60;0.60;;;8.60;70.10;;;8.40;55.50;94739.94;5047659;28;20227;-80
2022/09/24 03:19:02;;;;;;;0.60;0.60;;;8.60;70.20;;;8.43;54.96;94750.00;5064808;28;20201;-80
2022/09/24 03:21:30;;;;;;;0.65;0.65;;;8.60;70.20;;;8.41;55.58;94748.56;5062039;28;20230;-80
2022/09/24 03:23:57;;;;;;;0.60;0.60;;;8.60;70.30;;;8.40;55.67;94744.34;5049498;28;20195;-80
2022/09/24 03:26:25;;;;;;;0.60;0.60;;;8.60;70.30;;;8.38;55.68;94741.91;5045842;28;20768;-80
2022/09/24 03:28:52;;;;;;;0.70;0.70;;;8.60;71.10;;;8.38;55.86;94738.50;5064430;28;20245;-80
2022/09/24 03:31:22;;;;;;;0.70;0.70;;;8.60;70.30;;;8.37;55.80;94737.69;5054687;28;20648;-80
2022/09/24 03:33:49;;;;;;;0.65;0.65;;;8.60;70.30;;;8.36;55.63;94728.25;5058244;28;20546;-82
2022/09/24 03:36:27;;;;;;;0.60;0.60;;;8.50;70.30;;;8.34;55.66;94725.00;5060105;28;20190;-82
2022/09/24 03:38:56;;;;;;;0.60;0.60;;;8.50;70.70;;;8.31;55.62;94726.16;5060448;28;20178;-81
2022/09/24 03:41:26;;;;;;;0.80;0.80;;;8.50;70.40;;;8.26;55.50;94710.19;5054698;28;20288;-82
2022/09/24 03:43:54;;;;;;;0.60;0.60;;;8.50;70.60;;;8.28;55.64;94716.06;5056650;28;20192;-81
2022/09/24 03:46:27;;;;;;;0.70;0.70;;;8.50;70.30;;;8.27;55.50;94716.25;5039650;28;20200;-81
2022/09/24 03:48:54;;;;;;;0.60;0.60;;;8.40;70.30;;;8.24;55.30;94719.22;5056581;28;20188;-81
2022/09/24 03:51:22;;;;;;;0.70;0.70;;;8.50;70.30;;;8.21;55.57;94717.00;5052379;28;20704;-82
2022/09/24 03:53:49;;;;;;;0.70;0.70;;;8.40;70.30;;;8.18;55.43;94712.94;5095549;28;20195;-81
2022/09/24 03:56:16;;;;;;;0.60;0.60;;;8.40;71.20;;;8.15;55.54;94715.91;5078315;28;20649;-81
2022/09/24 03:58:46;;;;;;;0.70;0.70;;;8.30;70.30;;;8.14;55.66;94716.88;5043477;28;20205;-82
2022/09/24 04:01:18;;;;;;;0.70;0.70;;;8.30;70.30;;;8.11;55.54;94714.66;5058464;28;20214;-82
2022/09/24 04:03:46;;;;;;;0.70;0.70;;;8.40;70.50;;;8.06;55.60;94709.97;5073218;28;20203;-82
2022/09/24 04:06:14;;;;;;;0.63;0.63;;;8.20;70.30;;;8.04;55.41;94708.53;5053343;28;20316;-81
2022/09/24 04:08:41;;;;;;;0.70;0.70;;;8.20;70.30;;;8.00;55.61;94716.72;5061318;28;20573;-82
2022/09/24 04:11:08;;;;;;;0.68;0.68;;;8.20;70.40;;;7.98;55.67;94717.88;5047151;28;20242;-82
2022/09/24 04:13:35;;;;;;;0.60;0.60;;;8.20;70.50;;;7.93;55.50;94712.41;5053529;28;20207;-81
2022/09/24 04:16:03;;;;;;;0.70;0.70;;;8.10;70.50;;;7.90;55.81;94716.19;5044201;28;20230;-81
2022/09/24 04:18:31;;;;;;;0.65;0.65;;;8.10;70.70;;;7.88;55.67;94712.94;5061203;28;20199;-82
2022/09/24 04:21:04;;;;;;;0.60;0.60;;;8.10;70.60;;;7.85;55.70;94714.09;5063040;28;20223;-82
2022/09/24 04:23:32;;;;;;;0.60;0.60;;;8.00;70.50;;;7.85;55.57;94716.72;5061073;28;20203;-81
2022/09/24 04:26:00;;;;;;;0.80;0.80;;;8.10;70.60;;;7.83;55.62;94710.84;5059477;28;20650;-81
2022/09/24 04:28:29;;;;;;;0.60;0.60;;;8.00;70.60;;;7.82;55.76;94714.47;5050748;28;20236;-80
2022/09/24 04:30:57;;;;;;;0.65;0.65;;;8.00;70.80;;;7.83;55.91;94707.44;5050532;28;20203;-81
2022/09/24 04:33:25;;;;;;;0.60;0.60;;;8.00;70.90;;;7.84;56.00;94716.91;5049700;28;20221;-81
2022/09/24 04:35:52;;;;;;;0.70;0.70;;;8.00;70.90;;;7.85;56.14;94710.69;5055689;28;20206;-82
2022/09/24 04:38:20;;;;;;;0.68;0.68;;;8.00;70.90;;;7.85;56.08;94708.09;5044504;28;20215;-81
2022/09/24 04:40:47;;;;;;;0.70;0.70;;;8.10;71.80;;;7.83;55.78;94700.41;5062248;28;20195;-81
2022/09/24 04:43:14;;;;;;;0.63;0.63;;;8.00;70.80;;;7.82;55.75;94700.59;5060582;28;20787;-81
2022/09/24 04:45:44;;;;;;;0.70;0.70;;;8.00;70.70;;;7.76;55.83;94698.72;5044262;28;20248;-81
2022/09/24 04:48:12;;;;;;;0.60;0.60;;;7.90;70.70;;;7.74;55.99;94695.47;5044182;28;20920;-82
2022/09/24 04:50:39;;;;;;;0.60;0.60;;;7.90;70.70;;;7.74;56.41;94698.06;5062761;28;20199;-81
2022/09/24 04:53:13;;;;;;;0.60;0.60;;;8.00;70.70;;;7.71;56.23;94698.44;5045883;28;20211;-82
2022/09/24 04:55:40;;;;;;;0.70;0.70;;;7.90;70.80;;;7.68;55.94;94703.03;5046494;28;20249;-82
2022/09/24 04:58:08;;;;;;;0.75;0.75;;;7.90;70.80;;;7.66;55.94;94705.00;5061617;28;20225;-82
2022/09/24 05:00:36;;;;;;;0.60;0.60;;;7.80;70.70;;;7.63;56.60;94697.53;5028430;28;20281;-81
2022/09/24 05:03:03;;;;;;;0.60;0.60;;;7.80;70.80;;;7.60;55.90;94702.28;5054286;28;20226;-81
2022/09/24 05:05:32;;;;;;;0.63;0.63;;;7.90;70.90;;;7.57;56.02;94697.41;5028085;28;20286;-82
2022/09/24 05:08:00;;;;;;;0.50;0.50;;;7.80;71.00;;;7.55;55.99;94696.81;5043791;28;20222;-82
2022/09/24 05:10:33;;;;;;;0.60;0.60;;;7.70;70.90;;;7.51;56.41;94704.19;5045132;28;20198;-82
2022/09/24 05:13:01;;;;;;;0.50;0.50;;;7.70;71.20;;;7.49;56.41;94696.50;5054216;28;20246;-81
2022/09/24 05:15:28;;;;;;;0.60;0.60;;;7.70;71.20;;;7.51;56.29;94704.19;5049547;28;20657;-81
2022/09/24 05:17:55;;;;;;;0.60;0.60;;;7.70;71.30;;;7.50;56.58;94697.34;5046864;28;20796;-81
2022/09/24 05:20:22;;;;;;;0.60;0.60;;;7.70;71.30;;;7.54;56.29;94703.81;5052244;28;20198;-81
2022/09/24 05:22:50;;;;;;;0.68;0.68;;;7.70;72.30;;;7.55;56.49;94710.66;5051762;28;20293;-83
2022/09/24 05:25:22;;;;;;;0.70;0.70;;;7.70;71.50;;;7.57;56.48;94706.09;5053511;28;20291;-81
2022/09/24 05:27:50;;;;;;;0.60;0.60;;;7.70;71.80;;;7.60;56.44;94703.09;5059624;28;20588;-80
2022/09/24 05:30:21;;;;;;;0.60;0.60;;;7.70;71.70;;;7.64;56.31;94706.16;5062240;28;20194;-81
2022/09/24 05:32:50;;;;;;;0.60;0.60;;;7.70;72.00;;;7.66;56.79;94714.63;5045571;28;20215;-80
2022/09/24 05:35:22;;;;;;;0.70;0.70;;;7.80;71.80;;;7.70;56.86;94715.88;5047609;28;20587;-82
2022/09/24 05:37:52;;;;;;;0.60;0.60;;;7.90;72.50;;;7.73;56.58;94720.78;5038416;28;20224;-82
2022/09/24 05:43:09;;;;;;;0.60;0.60;;;7.90;72.10;;;7.82;57.04;94727.53;5042785;28;20349;-83
2022/09/24 05:45:36;;;;;;;0.60;0.60;;;8.00;72.20;;;7.86;57.03;94728.00;5046779;28;20261;-82
2022/09/24 05:48:05;;;;;;;0.60;0.60;;;7.90;72.20;;;7.89;57.11;94722.41;5040729;28;20218;-83
2022/09/24 05:50:33;;;;;;;0.70;0.70;;;8.00;72.40;;;7.93;57.25;94721.03;5057400;28;20195;-83
2022/09/24 05:53:02;;;;;;;0.60;0.60;;;8.10;72.50;;;8.07;57.16;94744.72;5042333;28;20215;-82
2022/09/24 05:55:29;;;;;;;0.70;0.70;;;8.10;72.60;;;8.14;57.24;94733.38;5042103;28;20650;-83
2022/09/24 05:58:08;;;;;;;0.60;0.60;;;8.30;72.80;;;8.23;57.17;94738.53;5040622;28;20262;-82
2022/09/24 06:00:36;;;;;;;0.60;0.60;;;8.30;73.40;;;8.26;57.16;94725.09;5051441;28;20217;-83
2022/09/24 06:03:14;;;;;;;0.60;0.60;;;8.40;72.60;;;8.32;57.25;94735.63;5053180;28;20218;-82
2022/09/24 06:05:50;;;;;;;0.65;0.65;;;8.50;73.40;;;8.38;57.32;94730.66;5065788;28;20265;-83
2022/09/24 06:08:19;;;;;;;0.70;0.70;;;8.60;73.00;;;8.44;57.16;94730.72;5025671;28;20619;-83
2022/09/24 06:10:47;;;;;;;0.60;0.60;;;8.50;72.70;;;8.48;57.14;94725.97;5066213;28;20634;-83
2022/09/24 06:13:18;;;;;;;0.70;0.70;;;8.60;72.60;;;8.56;57.21;94720.66;5051687;28;20218;-82
2022/09/24 06:15:45;;;;;;;0.60;0.60;;;8.60;72.70;;;8.61;57.31;94723.53;5027328;28;20298;-82
2022/09/24 06:18:12;;;;;;;0.60;0.60;;;8.70;72.60;;;8.66;57.28;94717.75;5053139;28;20219;-84
2022/09/24 06:20:40;;;;;;;0.60;0.60;;;8.80;72.60;;;8.75;57.44;94718.44;5037469;28;20195;-83
2022/09/24 06:23:07;;;;;;;0.60;0.60;;;8.90;72.80;;;8.85;57.68;94711.13;5041308;28;20231;-83
2022/09/24 06:25:34;;;;;;;0.70;0.70;;;8.90;72.90;;;8.94;57.58;94709.97;5041553;28;20211;-84
2022/09/24 06:28:04;;;;;;;0.60;0.60;;;9.10;73.10;;;9.05;57.51;94711.28;5037260;28;20303;-83
2022/09/24 06:30:37;;;;;;;0.60;0.60;;;9.10;73.20;;;9.21;57.89;94709.44;5046742;28;20620;-82
2022/09/24 06:33:12;;;;;;;0.70;0.70;;;9.30;73.80;;;9.33;58.26;94707.91;5055946;28;20694;-82
2022/09/24 06:35:42;;;;;;;0.70;0.70;;;9.40;73.70;;;9.47;57.58;94706.19;5058917;28;20179;-82
2022/09/24 06:38:16;;;;;;;0.70;0.70;;;9.50;73.40;;;9.61;57.92;94701.88;5051424;28;20230;-84
2022/09/24 06:40:47;;;;;;;0.70;0.70;;;9.70;73.80;;;9.73;57.99;94702.19;5044715;28;20188;-81
2022/09/24 06:43:16;;;;;;;0.70;0.70;;;9.90;73.40;;;9.85;57.82;94691.94;5043996;28;20222;-80
2022/09/24 06:45:46;;;;;;;0.60;0.60;;;9.90;73.10;;;9.99;58.18;94698.09;5043117;28;20184;-81
2022/09/24 06:48:14;;;;;;;0.80;0.80;;;10.10;71.90;;;10.10;57.93;94690.47;5041457;28;20229;-81
2022/09/24 06:50:44;;;;;;;0.60;0.60;;;10.30;72.10;;;10.22;58.01;94685.50;5059977;28;20203;-82
2022/09/24 06:53:11;;;;;;;0.70;0.70;;;10.40;72.10;;;10.35;58.16;94694.41;5049543;28;20645;-82
2022/09/24 06:55:39;;;;;;;0.50;0.50;;;10.50;71.90;;;10.46;58.04;94693.91;5053569;28;20561;-83
2022/09/24 06:58:10;;;;;;;0.70;0.70;;;10.60;72.70;;;10.60;58.09;94696.56;5059767;28;20250;-82
2022/09/24 07:00:39;;;;;;;0.70;0.70;;;10.70;71.80;;;10.70;57.80;94702.25;5044011;28;20191;-82
2022/09/24 07:03:08;;;;;;;0.60;0.60;;;10.90;71.80;;;10.77;57.88;94700.44;5029128;28;20234;-82
2022/09/24 07:05:35;;;;;;;0.60;0.60;;;11.00;72.50;;;10.90;57.71;94704.94;5052786;28;20215;-82
2022/09/24 07:08:09;;;;;;;0.50;0.50;;;11.10;71.40;;;11.00;57.63;94702.72;5047540;28;20248;-83
2022/09/24 07:10:38;;;;;;;0.70;0.70;;;11.20;71.40;;;11.12;57.60;94699.50;5044935;28;20289;-82
2022/09/24 07:13:05;;;;;;;0.60;0.60;;;11.30;71.40;;;11.21;57.36;94698.31;5053590;28;20222;-82
2022/09/24 07:15:33;;;;;;;0.60;0.60;;;11.40;71.20;;;11.29;57.65;94699.91;5052898;28;20225;-82
2022/09/24 07:18:01;;;;;;;0.70;0.70;;;11.50;71.10;;;11.35;57.18;94706.97;5060475;28;20207;-83
2022/09/24 07:20:28;;;;;;;0.70;0.70;;;11.60;70.90;;;11.45;57.18;94712.66;5043115;28;20195;-83
2022/09/24 07:22:56;;;;;;;0.60;0.60;;;11.70;70.70;;;11.51;57.05;94706.59;5042293;28;20226;-83
2022/09/24 07:25:25;;;;;;;0.60;0.60;;;11.70;70.50;;;11.54;56.95;94710.63;5062316;28;20225;-82
2022/09/24 07:27:53;;;;;;;0.70;0.70;;;11.80;70.50;;;11.58;56.65;94703.16;5044669;28;20210;-82
2022/09/24 07:30:21;;;;;;;0.60;0.60;;;11.80;70.40;;;11.61;56.82;94710.63;5046204;28;20191;-82
2022/09/24 07:32:55;;;;;;;0.68;0.68;;;11.80;70.50;;;11.62;56.89;94693.84;5045908;28;20219;-83
2022/09/24 07:35:23;;;;;;;0.70;0.70;;;11.90;70.60;;;11.64;56.59;94704.97;5041535;28;20183;-82
2022/09/24 07:38:03;;;;;;;0.80;0.80;;;11.90;70.30;;;11.65;56.76;94702.13;5049994;28;20721;-83
2022/09/24 07:40:31;;;;;;;0.75;0.75;;;11.90;70.60;;;11.64;56.54;94702.34;5045260;28;20191;-83
2022/09/24 07:42:59;;;;;;;0.60;0.60;;;11.90;70.30;;;11.65;56.76;94711.84;5035597;28;20229;-83
2022/09/24 07:45:32;;;;;;;0.60;0.60;;;11.90;70.30;;;11.65;56.75;94712.63;5034478;28;20657;-83
2022/09/24 07:48:04;;;;;;;0.60;0.60;;;11.90;70.30;;;11.67;56.77;94725.59;5041243;28;20219;-82
2022/09/24 07:50:38;;;;;;;0.80;0.80;;;12.00;70.70;;;11.74;56.86;94736.09;5036270;28;20298;-84
2022/09/24 07:53:06;;;;;;;0.60;0.60;;;12.00;70.70;;;11.74;56.99;94715.06;5035971;28;20217;-83
2022/09/24 07:55:38;;;;;;;0.60;0.60;;;12.00;70.50;;;11.85;57.02;94722.31;5051875;28;20207;-83
2022/09/24 07:58:10;;;;;;;0.68;0.68;;;12.10;70.60;;;11.91;57.08;94732.00;5032606;28;20210;-83
2022/09/24 08:00:38;;;;;;;0.70;0.70;;;12.20;70.60;;;12.00;56.76;94716.88;5035488;28;20264;-82
2022/09/24 08:03:06;;;;;;;0.60;0.60;;;12.20;70.50;;;12.11;57.12;94718.09;5076221;28;20222;-82
2022/09/24 08:05:33;;;;;;;0.60;0.60;;;12.30;70.60;;;12.20;56.99;94713.41;5035970;28;20661;-84
2022/09/24 08:08:02;;;;;;;0.60;0.60;;;12.40;70.50;;;12.28;56.94;94708.72;5044381;28;20223;-83
2022/09/24 08:10:30;;;;;;;0.80;0.80;;;12.50;70.70;;;12.44;57.06;94704.81;5060495;28;20194;-83
2022/09/24 08:13:01;;;;;;;0.70;0.70;;;12.60;70.70;;;12.60;56.76;94714.06;5036797;28;20736;-83
2022/09/24 08:15:32;;;;;;;0.60;0.60;;;12.80;70.70;;;12.76;56.90;94718.03;5048229;28;20203;-83
2022/09/24 08:18:04;;;;;;;0.70;0.70;;;12.90;70.70;;;12.90;56.74;94717.97;5050551;28;20246;-83
2022/09/24 08:20:35;;;;;;;0.60;0.60;;;13.00;70.40;;;13.03;56.78;94714.47;5047969;28;20201;-83
2022/09/24 08:23:06;;;;;;;0.60;0.60;;;13.20;70.50;;;13.19;56.58;94715.78;5036143;28;20313;-84
2022/09/24 08:25:34;;;;;;;0.60;0.60;;;13.30;70.60;;;13.32;56.96;94720.13;5057422;28;20278;-82
2022/09/24 08:28:05;;;;;;;0.70;0.70;;;13.40;70.40;;;13.43;56.39;94720.28;5046314;28;20253;-83
2022/09/24 08:30:35;;;;;;;0.60;0.60;;;13.60;70.50;;;13.59;56.06;94718.16;5033482;28;20209;-84
2022/09/24 08:33:06;;;;;;;0.73;0.73;;;13.70;70.30;;;13.70;55.97;94717.44;5047291;28;20254;-83
2022/09/24 08:35:35;;;;;;;0.60;0.60;;;13.80;70.20;;;13.86;56.18;94708.16;5055821;28;20209;-84
2022/09/24 08:38:04;;;;;;;0.60;0.60;;;14.00;70.30;;;14.02;56.23;94708.66;5063958;28;20242;-84
2022/09/24 08:40:54;;;;;;;0.70;0.70;;;14.10;70.50;;;14.22;56.14;94717.16;5051327;28;20194;-85
2022/09/24 08:44:07;;;;;;;0.50;0.50;;;14.30;70.30;;;14.43;56.16;94714.28;5065844;28;20265;-84
2022/09/24 08:49:46;;;;;;;0.60;0.60;;;14.70;70.00;;;14.73;55.73;94709.91;5058229;28;20275;-84
2022/09/24 08:53:05;;;;;;;0.57;0.57;;;14.90;69.60;;;14.85;55.39;94717.06;5061947;28;20221;-83
2022/09/24 08:55:43;;;;;;;0.50;0.50;;;15.10;69.60;;;14.94;55.47;94722.84;5045637;28;20228;-84
2022/09/24 08:58:52;;;;;;;0.52;0.52;;;15.20;69.40;;;14.99;54.89;94728.25;5051012;28;20242;-84
2022/09/24 09:02:08;;;;;;;0.60;0.60;;;15.30;69.10;;;15.05;54.73;94727.38;5055615;28;20187;-83
2022/09/24 09:05:02;;;;;;;0.60;0.60;;;15.30;68.90;;;15.12;55.10;94722.00;5059717;28;20222;-83
2022/09/24 09:07:52;;;;;;;0.50;0.50;;;15.40;69.00;;;15.17;54.92;94722.94;5035632;28;20571;-84
2022/09/24 09:10:35;;;;;;;0.60;0.60;;;15.50;68.70;;;15.21;54.56;94716.16;5029458;28;20225;-83
2022/09/24 09:13:38;;;;;;;0.70;0.70;;;15.50;68.80;;;15.27;54.46;94713.66;5028328;28;20218;-83
2022/09/24 09:16:21;;;;;;;0.50;0.50;;;15.60;68.70;;;15.33;54.79;94716.19;5050079;28;20222;-83
2022/09/24 09:18:52;;;;;;;0.52;0.52;;;15.60;68.80;;;15.45;54.60;94707.47;5055954;28;20657;-85
2022/09/24 09:21:51;;;;;;;0.60;0.60;;;15.70;69.00;;;15.50;54.52;94719.00;5030652;28;20186;-85
2022/09/24 09:24:37;;;;;;;0.60;0.60;;;15.80;68.80;;;15.58;54.44;94717.06;5041842;28;20199;-84
2022/09/24 09:27:15;;;;;;;0.50;0.50;;;15.80;68.80;;;15.63;54.62;94711.88;5041622;28;20242;-84
2022/09/24 09:29:52;;;;;;;0.40;0.40;;;15.90;68.80;;;15.69;54.63;94722.34;5046644;28;20233;-84
2022/09/24 09:32:47;;;;;;;0.50;0.50;;;16.00;69.00;;;15.77;54.59;94715.09;5032274;28;20313;-85
2022/09/24 09:35:37;;;;;;;0.60;0.60;;;16.00;69.00;;;15.83;54.52;94711.56;5071845;28;20191;-85
2022/09/24 09:38:10;;;;;;;0.50;0.50;;;16.10;68.80;;;15.89;54.88;94705.38;5063471;28;20228;-85
2022/09/24 09:40:52;;;;;;;0.60;0.60;;;16.10;68.90;;;15.96;54.47;94706.06;5050282;28;20187;-84
2022/09/24 09:43:20;;;;;;;0.50;0.50;;;16.30;68.90;;;16.06;54.51;94705.47;5061345;28;20226;-85
2022/09/24 09:46:21;;;;;;;0.70;0.70;;;16.30;68.90;;;16.10;54.39;94693.41;5039625;28;20292;-84
2022/09/24 09:48:59;;;;;;;0.50;0.50;;;16.40;68.80;;;16.24;54.85;94690.53;5031197;28;20209;-84
2022/09/24 09:51:36;;;;;;;0.50;0.50;;;16.50;68.90;;;16.38;54.60;94699.81;5038663;28;20225;-85
2022/09/24 09:54:04;;;;;;;0.50;0.50;;;16.70;68.80;;;16.50;54.22;94699.78;5030254;28;20198;-85
2022/09/24 09:56:46;;;;;;;0.50;0.50;;;16.70;68.80;;;16.63;54.23;94701.38;5030078;28;20673;-83
2022/09/24 09:59:20;;;;;;;0.50;0.50;;;16.80;68.70;;;16.77;54.64;94704.53;5035706;28;20205;-84
2022/09/24 10:01:55;;;;;;;0.50;0.50;;;17.00;68.60;;;16.89;54.36;94699.19;5039891;28;20293;-85
2022/09/24 10:04:42;;;;;;;0.50;0.50;;;17.10;68.80;;;17.01;53.97;94691.25;5056645;28;20186;-85
2022/09/24 10:07:14;;;;;;;0.60;0.60;;;17.30;68.40;;;17.17;54.49;94698.41;5056083;28;20218;-85
2022/09/24 10:09:44;;;;;;;0.50;0.50;;;17.40;68.60;;;17.35;54.46;94678.03;5039247;28;20194;-86
2022/09/24 10:12:23;;;;;;;0.50;0.50;;;17.60;68.70;;;17.56;53.92;94677.31;5021825;28;20218;-84
2022/09/24 10:14:57;;;;;;;0.50;0.50;;;17.70;68.70;;;17.81;53.83;94680.59;5022490;28;20666;-84
2022/09/24 10:17:30;;;;;;;0.50;0.50;;;17.90;68.30;;;18.04;53.75;94682.28;5072607;28;20309;-84
2022/09/24 10:20:01;;;;;;;0.45;0.45;;;18.20;68.30;;;18.29;53.54;94687.13;5055859;28;20209;-84
2022/09/24 10:22:30;;;;;;;0.50;0.50;;;18.40;68.40;;;18.53;53.54;94687.72;5041432;28;20330;-84
2022/09/24 10:25:00;;;;;;;0.40;0.40;;;18.60;68.00;;;18.76;53.45;94682.38;5042158;28;20202;-84
2022/09/24 10:27:35;;;;;;;0.50;0.50;;;18.80;67.80;;;18.93;52.39;94679.66;5054393;28;20230;-85
2022/09/24 10:30:34;;;;;;;0.40;0.40;;;19.10;67.50;;;19.16;52.78;94673.25;5041588;28;20186;-85
2022/09/24 10:33:03;;;;;;;0.40;0.40;;;19.30;67.00;;;19.33;52.33;94668.63;5053695;28;20265;-84
2022/09/24 10:35:37;;;;;;;0.40;0.40;;;19.50;67.20;;;19.54;52.10;94674.09;5049096;28;20202;-84
2022/09/24 10:38:18;;;;;;;0.40;0.40;;;19.70;66.50;;;19.72;51.99;94672.91;5049022;28;20214;-84
2022/09/24 10:40:47;;;;;;;0.40;0.40;;;19.90;66.80;;;19.88;51.45;94673.84;5032487;28;20204;-84
2022/09/24 10:43:22;;;;;;;0.50;0.50;;;20.10;66.70;;;20.05;51.00;94678.22;5046434;28;20231;-85
2022/09/24 10:46:33;;;;;;;0.40;0.40;;;20.30;66.00;;;20.17;51.15;94664.72;5051017;28;20646;-84
2022/09/24 10:49:26;;;;;;;0.40;0.40;;;20.40;66.10;;;20.42;50.96;94669.34;5052689;28;20245;-84
2022/09/24 10:52:35;;;;;;;0.40;0.40;;;20.70;66.10;;;20.59;50.59;94669.16;5056977;28;20225;-84
2022/09/24 10:55:23;;;;;;;0.40;0.40;;;20.90;65.60;;;20.76;50.60;94667.13;5054650;28;20197;-84
2022/09/24 10:58:30;;;;;;;0.40;0.40;;;21.00;65.60;;;20.88;49.69;94658.88;5038086;28;20290;-83
2022/09/24 11:01:18;;;;;;;0.40;0.40;;;21.20;65.00;;;21.01;49.75;94659.47;5038693;28;20198;-84
2022/09/24 11:04:19;;;;;;;0.40;0.40;;;21.40;64.60;;;21.09;49.44;94657.06;5045997;28;20623;-84